Ana Sayfa
METAR-TAF:

METAR-TAF

Havaalanları :

Pickens, Güney Carolina, Amerika Birleşik Devletleri

Enlem: 34-48-36N, Boylam: 082-42-10W, yükseklik: 309 m

Güncel hava durumu gözlemi

Rapor saat 11:35 UTC de 23 dakika önce yapıldı.
Sakin rüzgar
Sıcaklık 5°C
Nem 100%
Basınç 1025 hPa
100 ft yükseklikte çok bulutlu
sis

METAR: KLQK 111135Z AUTO 00000KT M1/4SM FG OVC001 05/05 A3028 RMK AO2 T00500050

Saat: 06:58 (11:58 UTC)


TAF: eksik

4.000'den fazla havaalanı için hava durumu gözlemleri ve tahminleri (METAR ve TAF raporları).

Kullanılabilir istasyonlar harita üzerinde sarı ve kırmızı noktalarla gösterilir.

İstasyonun adını görmek için fareyi noktanın üzerinde gezdirin.

Sonrasında hava gözlem ve tahminlerini görmek için tıklayın.

Haritayı değiştirmek için: yaklaştırmak için siyah artı işaretli yeşil düğmeye ve uzaklaştırmak için de eksi işaretli düğmeye hızla tıklayın; bitişik haritalar için yeşil okları kullanın.


METAR-TAF: